Raneson — LG4151 — position and weather

sailwx.info

Track history (hours):
 
Tides and Currents Weather Stations Pressure Air Temp Water Temp Dewpoint Dewpoint Depression Visibility Wind Speed Wind Dir Waves Ship Positions

Raneson

Last reported at 2017-Nov-16 09:05 UTC. Time now 2017-Dec-12 10:17 UTC.
Position N 68°50' E 014°47'.
Warning: this ship's position is 26 days out of date.

Length 15 m.

Type: Tug. MMSI: 258296500.

Date/timePositionNaut miles runAvg speedWind from/ knotsBaromVisibWave heightAir tempDewpointWater temp
2017-Nov-16 09:05N 68°50' E 014°47'0 1.0
2017-Nov-16 08:58N 68°50' E 014°47'0 0.1
2017-Nov-16 08:19N 68°50' E 014°47'1 2.1
2017-Nov-16 07:59N 68°49' E 014°47'3 5.4
2017-Nov-16 07:29N 68°48' E 014°53'1 1.1
2017-Nov-16 06:39N 68°48' E 014°56'0 0.0
2017-Nov-16 06:30N 68°48' E 014°56'0 0.0
2017-Nov-16 05:39N 68°48' E 014°56'0 0.0
2017-Nov-16 05:24N 68°48' E 014°56'0 0.0
2017-Nov-16 04:51N 68°48' E 014°56'0 0.0
2017-Nov-16 03:57N 68°48' E 014°56'0 0.0
2017-Nov-15 23:30N 68°48' E 014°56'0 0.0
2017-Nov-15 11:28N 68°48' E 014°56'2 3.8
2017-Nov-15 11:00N 68°48' E 014°51'3 5.3
2017-Nov-15 10:30N 68°50' E 014°47'0 0.0
2017-Nov-15 10:00N 68°50' E 014°47'0 0.2
2017-Nov-15 09:18N 68°50' E 014°46'2 4.3
2017-Nov-15 08:56N 68°48' E 014°49'3 6.0
2017-Nov-15 08:28N 68°48' E 014°56'3 5.8
2017-Nov-15 08:00N 68°48' E 014°49'2 3.1
2017-Nov-15 07:28N 68°50' E 014°47'0 0.0
2017-Nov-15 06:58N 68°50' E 014°47'2 5.1
2017-Nov-15 06:30N 68°48' E 014°50'2 0.3
2017-Nov-14 23:02N 68°48' E 014°56'0 0.0
2017-Nov-14 22:14N 68°48' E 014°56'0 0.0
2017-Nov-14 21:08N 68°48' E 014°56'0 0.0
2017-Nov-14 20:26N 68°48' E 014°56'0 0.0
2017-Nov-14 18:14N 68°48' E 014°56'0 0.0
2017-Nov-14 16:06N 68°48' E 014°56'0 4.9
2017-Nov-14 16:00N 68°48' E 014°55'3 5.3
2017-Nov-14 15:28N 68°49' E 014°48'1 2.1
2017-Nov-14 15:00N 68°50' E 014°47'0 0.1
2017-Nov-14 14:12N 68°50' E 014°47'0 0.1
2017-Nov-14 13:57N 68°50' E 014°47'0 0.2
2017-Nov-14 13:28N 68°50' E 014°47'0 0.0
2017-Nov-14 12:58N 68°50' E 014°47'0 0.0
2017-Nov-14 12:28N 68°50' E 014°47'0 0.0
2017-Nov-14 11:58N 68°50' E 014°47'0 0.0
2017-Nov-14 11:28N 68°50' E 014°47'0 0.0
2017-Nov-14 10:58N 68°50' E 014°47'0 0.0
2017-Nov-14 10:28N 68°50' E 014°47'0 0.0
2017-Nov-14 09:58N 68°50' E 014°47'0 0.0
2017-Nov-14 09:28N 68°50' E 014°47'0 0.0
2017-Nov-14 08:58N 68°50' E 014°47'0 0.0
2017-Nov-14 08:30N 68°50' E 014°47'0 0.0
2017-Nov-14 07:56N 68°50' E 014°47'2 3.3
2017-Nov-14 07:28N 68°48' E 014°49'3 5.3
2017-Nov-14 06:58N 68°48' E 014°56'0 0.3
2017-Nov-14 06:22N 68°48' E 014°56'0 0.0
2017-Nov-14 05:49N 68°48' E 014°56'0 0.0
2017-Nov-14 05:13N 68°48' E 014°56'0 0.0
2017-Nov-14 01:43N 68°48' E 014°56'0 0.0
2017-Nov-14 01:13N 68°48' E 014°56'0 0.0
2017-Nov-14 00:55N 68°48' E 014°56'0 0.0
2017-Nov-13 23:49N 68°48' E 014°56'0 0.0
2017-Nov-13 22:25N 68°48' E 014°56'0 0.0
2017-Nov-13 01:34N 68°48' E 014°56'0 0.0
2017-Nov-13 01:28N 68°48' E 014°56'0 0.0
2017-Nov-13 00:52N 68°48' E 014°56'0 0.0
2017-Nov-12 23:46N 68°48' E 014°56'0 0.0
2017-Nov-12 23:22N 68°48' E 014°56'0 0.0
2017-Nov-12 22:46N 68°48' E 014°56'0 0.0
2017-Nov-12 22:22N 68°48' E 014°56'0 0.0
2017-Nov-12 21:34N 68°48' E 014°56'0 0.0
2017-Nov-12 18:16N 68°48' E 014°56'0 0.0
2017-Nov-12 17:34N 68°48' E 014°56'0 0.0
2017-Nov-12 17:10N 68°48' E 014°56'0 0.0
2017-Nov-12 16:34N 68°48' E 014°56'0 0.0
2017-Nov-12 16:28N 68°48' E 014°56'1 2.5
2017-Nov-12 16:00N 68°48' E 014°53'4 6.5
2017-Nov-12 15:19N 68°51' E 014°43'2 7.0
2017-Nov-12 15:00N 68°50' E 014°37'4 8.8
2017-Nov-12 14:30N 68°48' E 014°27'5 9.0
2017-Nov-12 14:00N 68°44' E 014°23'4 8.4
2017-Nov-12 13:30N 68°39' E 014°23'4 8.9
2017-Nov-12 13:00N 68°35' E 014°25'510.1
2017-Nov-12 12:30N 68°35' E 014°39'5 9.8
2017-Nov-12 12:00N 68°35' E 014°52'2 3.3
2017-Nov-12 11:29N 68°34' E 014°56'3 6.3
2017-Nov-12 11:00N 68°33' E 015°04'4 8.5
2017-Nov-12 10:30N 68°30' E 015°11'4 7.6
2017-Nov-12 10:00N 68°26' E 015°09'5 9.1
2017-Nov-12 09:29N 68°22' E 015°03'4 8.4
2017-Nov-12 09:00N 68°18' E 014°58'4 8.3
2017-Nov-12 08:29N 68°14' E 014°56'4 8.6
2017-Nov-12 07:59N 68°10' E 014°59'4 8.6
2017-Nov-12 07:30N 68°06' E 015°03'4 8.3
2017-Nov-12 07:00N 68°02' E 015°07'4 8.3
2017-Nov-12 06:30N 67°58' E 015°10'4 8.0
2017-Nov-12 06:00N 67°56' E 015°20'4 7.5
2017-Nov-12 05:30N 67°54' E 015°11'0 0.2
2017-Nov-12 04:59N 67°54' E 015°11'0 0.0
2017-Nov-12 04:26N 67°54' E 015°11'0 0.0
2017-Nov-12 03:59N 67°54' E 015°11'0 0.0
2017-Nov-12 03:29N 67°54' E 015°11'0 0.0
2017-Nov-12 02:59N 67°54' E 015°11'0 0.0
2017-Nov-12 02:29N 67°54' E 015°11'0 0.0
2017-Nov-12 01:59N 67°54' E 015°11'0 0.0
2017-Nov-12 01:29N 67°54' E 015°11'0 0.0
2017-Nov-12 00:59N 67°54' E 015°11'0 0.0
2017-Nov-12 00:29N 67°54' E 015°11'0 0.0
2017-Nov-11 23:59N 67°54' E 015°11'0 0.0
2017-Nov-11 23:29N 67°54' E 015°11'0 0.0
2017-Nov-11 22:59N 67°54' E 015°11'0 0.0
2017-Nov-11 22:29N 67°54' E 015°11'0 0.0
2017-Nov-11 21:59N 67°54' E 015°11'0 0.0
2017-Nov-11 21:29N 67°54' E 015°11'0 0.0
2017-Nov-11 20:59N 67°54' E 015°11'0 0.0
2017-Nov-11 20:29N 67°54' E 015°11'0 0.0
2017-Nov-11 19:59N 67°54' E 015°11'0 0.0
2017-Nov-11 19:29N 67°54' E 015°11'0 0.0
2017-Nov-11 18:56N 67°54' E 015°11'0 0.0
2017-Nov-11 18:29N 67°54' E 015°11'0 0.0
2017-Nov-11 17:59N 67°54' E 015°11'0 0.0
2017-Nov-11 17:29N 67°54' E 015°11'0 0.0
2017-Nov-11 16:59N 67°54' E 015°11'0 0.0
2017-Nov-11 16:29N 67°54' E 015°11'0 0.0
2017-Nov-11 15:59N 67°54' E 015°11'0 0.0
2017-Nov-11 15:31N 67°54' E 015°11'0 0.0
2017-Nov-11 15:00N 67°54' E 015°11'0 0.0
2017-Nov-11 14:31N 67°54' E 015°11'0 0.0
2017-Nov-11 14:01N 67°54' E 015°11'3 4.9
2017-Nov-11 13:29N 67°55' E 015°05'4 9.2
2017-Nov-11 13:00N 67°54' E 014°53'4 8.4
2017-Nov-11 12:30N 67°50' E 014°47'4 8.7
2017-Nov-11 12:00N 67°46' E 014°43'5 9.4
2017-Nov-11 11:30N 67°41' E 014°42'4 7.7
2017-Nov-11 11:00N 67°39' E 014°50'5 9.3
2017-Nov-11 10:30N 67°40' E 015°01'1 1.5
2017-Nov-11 09:55N 67°41' E 015°02'0 0.0
2017-Nov-11 09:25N 67°41' E 015°02'4 7.1
2017-Nov-11 08:55N 67°43' E 015°11'4 7.8
2017-Nov-11 08:27N 67°46' E 015°15'2 3.0
2017-Nov-11 07:56N 67°46' E 015°19'4 9.0
2017-Nov-11 07:30N 67°46' E 015°29'2 0.1
2017-Nov-10 11:53N 67°46' E 015°35'2 0.1
2017-Nov-09 12:31N 67°46' E 015°30'0 9.2
2017-Nov-09 12:29N 67°46' E 015°30'6 9.2
2017-Nov-09 11:53N 67°46' E 015°15'0 0.0
2017-Nov-09 11:17N 67°46' E 015°15'0 0.0
2017-Nov-09 10:35N 67°46' E 015°15'0 0.1
2017-Nov-09 10:23N 67°46' E 015°15'6 8.8
2017-Nov-09 09:42N 67°46' E 015°30'2 0.2
2017-Nov-09 01:06N 67°46' E 015°35'2 0.0
2017-Nov-07 06:48N 67°46' E 015°31'6 7.7
2017-Nov-07 06:01N 67°46' E 015°15'0 0.2
2017-Nov-07 05:54N 67°46' E 015°15'0 0.0
2017-Nov-07 05:24N 67°46' E 015°15'0 0.0
2017-Nov-07 04:27N 67°46' E 015°15'0 0.0
2017-Nov-07 03:57N 67°46' E 015°15'0 0.0
2017-Nov-07 03:30N 67°46' E 015°15'0 0.0
2017-Nov-07 02:57N 67°46' E 015°15'0 0.0
2017-Nov-07 02:21N 67°46' E 015°15'0 0.0
2017-Nov-07 02:00N 67°46' E 015°15'0 0.0
2017-Nov-07 01:21N 67°46' E 015°15'0 0.0
2017-Nov-07 00:54N 67°46' E 015°15'0 0.0
2017-Nov-07 00:30N 67°46' E 015°15'0 0.0
2017-Nov-06 23:51N 67°46' E 015°15'0 0.0
2017-Nov-06 23:30N 67°46' E 015°15'0 0.0
2017-Nov-06 22:54N 67°46' E 015°15'0 0.0
2017-Nov-06 22:30N 67°46' E 015°15'0 0.0
2017-Nov-06 21:57N 67°46' E 015°15'0 0.0
2017-Nov-06 21:27N 67°46' E 015°15'0 0.0
2017-Nov-06 20:42N 67°46' E 015°15'0 0.0
2017-Nov-06 20:24N 67°46' E 015°15'  
Track history (hours):
 
Tides and Currents Weather Stations Pressure Air Temp Water Temp Dewpoint Dewpoint Depression Visibility Wind Speed Wind Dir Waves Ship Positions

Raneson

Last reported at 2017-Nov-16 09:05 UTC. Time now 2017-Dec-12 10:17 UTC.
Position N 68°50' E 014°47'.
Warning: this ship's position is 26 days out of date.

Length 15 m.

Type: Tug. MMSI: 258296500.

Date/timePositionNaut miles runAvg speedWind from/ knotsBaromVisibWave heightAir tempDewpointWater temp
2017-Nov-16 09:05N 68°50' E 014°47'0 1.0
2017-Nov-16 08:58N 68°50' E 014°47'0 0.1
2017-Nov-16 08:19N 68°50' E 014°47'1 2.1
2017-Nov-16 07:59N 68°49' E 014°47'3 5.4
2017-Nov-16 07:29N 68°48' E 014°53'1 1.1
2017-Nov-16 06:39N 68°48' E 014°56'0 0.0
2017-Nov-16 06:30N 68°48' E 014°56'0 0.0
2017-Nov-16 05:39N 68°48' E 014°56'0 0.0
2017-Nov-16 05:24N 68°48' E 014°56'0 0.0
2017-Nov-16 04:51N 68°48' E 014°56'0 0.0
2017-Nov-16 03:57N 68°48' E 014°56'0 0.0
2017-Nov-15 23:30N 68°48' E 014°56'0 0.0
2017-Nov-15 11:28N 68°48' E 014°56'2 3.8
2017-Nov-15 11:00N 68°48' E 014°51'3 5.3
2017-Nov-15 10:30N 68°50' E 014°47'0 0.0
2017-Nov-15 10:00N 68°50' E 014°47'0 0.2
2017-Nov-15 09:18N 68°50' E 014°46'2 4.3
2017-Nov-15 08:56N 68°48' E 014°49'3 6.0
2017-Nov-15 08:28N 68°48' E 014°56'3 5.8
2017-Nov-15 08:00N 68°48' E 014°49'2 3.1
2017-Nov-15 07:28N 68°50' E 014°47'0 0.0
2017-Nov-15 06:58N 68°50' E 014°47'2 5.1
2017-Nov-15 06:30N 68°48' E 014°50'2 0.3
2017-Nov-14 23:02N 68°48' E 014°56'0 0.0
2017-Nov-14 22:14N 68°48' E 014°56'0 0.0
2017-Nov-14 21:08N 68°48' E 014°56'0 0.0
2017-Nov-14 20:26N 68°48' E 014°56'0 0.0
2017-Nov-14 18:14N 68°48' E 014°56'0 0.0
2017-Nov-14 16:06N 68°48' E 014°56'0 4.9
2017-Nov-14 16:00N 68°48' E 014°55'3 5.3
2017-Nov-14 15:28N 68°49' E 014°48'1 2.1
2017-Nov-14 15:00N 68°50' E 014°47'0 0.1
2017-Nov-14 14:12N 68°50' E 014°47'0 0.1
2017-Nov-14 13:57N 68°50' E 014°47'0 0.2
2017-Nov-14 13:28N 68°50' E 014°47'0 0.0
2017-Nov-14 12:58N 68°50' E 014°47'0 0.0
2017-Nov-14 12:28N 68°50' E 014°47'0 0.0
2017-Nov-14 11:58N 68°50' E 014°47'0 0.0
2017-Nov-14 11:28N 68°50' E 014°47'0 0.0
2017-Nov-14 10:58N 68°50' E 014°47'0 0.0
2017-Nov-14 10:28N 68°50' E 014°47'0 0.0
2017-Nov-14 09:58N 68°50' E 014°47'0 0.0
2017-Nov-14 09:28N 68°50' E 014°47'0 0.0
2017-Nov-14 08:58N 68°50' E 014°47'0 0.0
2017-Nov-14 08:30N 68°50' E 014°47'0 0.0
2017-Nov-14 07:56N 68°50' E 014°47'2 3.3
2017-Nov-14 07:28N 68°48' E 014°49'3 5.3
2017-Nov-14 06:58N 68°48' E 014°56'0 0.3
2017-Nov-14 06:22N 68°48' E 014°56'0 0.0
2017-Nov-14 05:49N 68°48' E 014°56'0 0.0
2017-Nov-14 05:13N 68°48' E 014°56'0 0.0
2017-Nov-14 01:43N 68°48' E 014°56'0 0.0
2017-Nov-14 01:13N 68°48' E 014°56'0 0.0
2017-Nov-14 00:55N 68°48' E 014°56'0 0.0
2017-Nov-13 23:49N 68°48' E 014°56'0 0.0
2017-Nov-13 22:25N 68°48' E 014°56'0 0.0
2017-Nov-13 01:34N 68°48' E 014°56'0 0.0
2017-Nov-13 01:28N 68°48' E 014°56'0 0.0
2017-Nov-13 00:52N 68°48' E 014°56'0 0.0
2017-Nov-12 23:46N 68°48' E 014°56'0 0.0
2017-Nov-12 23:22N 68°48' E 014°56'0 0.0
2017-Nov-12 22:46N 68°48' E 014°56'0 0.0
2017-Nov-12 22:22N 68°48' E 014°56'0 0.0
2017-Nov-12 21:34N 68°48' E 014°56'0 0.0
2017-Nov-12 18:16N 68°48' E 014°56'0 0.0
2017-Nov-12 17:34N 68°48' E 014°56'0 0.0
2017-Nov-12 17:10N 68°48' E 014°56'0 0.0
2017-Nov-12 16:34N 68°48' E 014°56'0 0.0
2017-Nov-12 16:28N 68°48' E 014°56'1 2.5
2017-Nov-12 16:00N 68°48' E 014°53'4 6.5
2017-Nov-12 15:19N 68°51' E 014°43'2 7.0
2017-Nov-12 15:00N 68°50' E 014°37'4 8.8
2017-Nov-12 14:30N 68°48' E 014°27'5 9.0
2017-Nov-12 14:00N 68°44' E 014°23'4 8.4
2017-Nov-12 13:30N 68°39' E 014°23'4 8.9
2017-Nov-12 13:00N 68°35' E 014°25'510.1
2017-Nov-12 12:30N 68°35' E 014°39'5 9.8
2017-Nov-12 12:00N 68°35' E 014°52'2 3.3
2017-Nov-12 11:29N 68°34' E 014°56'3 6.3
2017-Nov-12 11:00N 68°33' E 015°04'4 8.5
2017-Nov-12 10:30N 68°30' E 015°11'4 7.6
2017-Nov-12 10:00N 68°26' E 015°09'5 9.1
2017-Nov-12 09:29N 68°22' E 015°03'4 8.4
2017-Nov-12 09:00N 68°18' E 014°58'4 8.3
2017-Nov-12 08:29N 68°14' E 014°56'4 8.6
2017-Nov-12 07:59N 68°10' E 014°59'4 8.6
2017-Nov-12 07:30N 68°06' E 015°03'4 8.3
2017-Nov-12 07:00N 68°02' E 015°07'4 8.3
2017-Nov-12 06:30N 67°58' E 015°10'4 8.0
2017-Nov-12 06:00N 67°56' E 015°20'4 7.5
2017-Nov-12 05:30N 67°54' E 015°11'0 0.2
2017-Nov-12 04:59N 67°54' E 015°11'0 0.0
2017-Nov-12 04:26N 67°54' E 015°11'0 0.0
2017-Nov-12 03:59N 67°54' E 015°11'0 0.0
2017-Nov-12 03:29N 67°54' E 015°11'0 0.0
2017-Nov-12 02:59N 67°54' E 015°11'0 0.0
2017-Nov-12 02:29N 67°54' E 015°11'0 0.0
2017-Nov-12 01:59N 67°54' E 015°11'0 0.0
2017-Nov-12 01:29N 67°54' E 015°11'0 0.0
2017-Nov-12 00:59N 67°54' E 015°11'0 0.0
2017-Nov-12 00:29N 67°54' E 015°11'0 0.0
2017-Nov-11 23:59N 67°54' E 015°11'0 0.0
2017-Nov-11 23:29N 67°54' E 015°11'0 0.0
2017-Nov-11 22:59N 67°54' E 015°11'0 0.0
2017-Nov-11 22:29N 67°54' E 015°11'0 0.0
2017-Nov-11 21:59N 67°54' E 015°11'0 0.0
2017-Nov-11 21:29N 67°54' E 015°11'0 0.0
2017-Nov-11 20:59N 67°54' E 015°11'0 0.0
2017-Nov-11 20:29N 67°54' E 015°11'0 0.0
2017-Nov-11 19:59N 67°54' E 015°11'0 0.0
2017-Nov-11 19:29N 67°54' E 015°11'0 0.0
2017-Nov-11 18:56N 67°54' E 015°11'0 0.0
2017-Nov-11 18:29N 67°54' E 015°11'0 0.0
2017-Nov-11 17:59N 67°54' E 015°11'0 0.0
2017-Nov-11 17:29N 67°54' E 015°11'0 0.0
2017-Nov-11 16:59N 67°54' E 015°11'0 0.0
2017-Nov-11 16:29N 67°54' E 015°11'0 0.0
2017-Nov-11 15:59N 67°54' E 015°11'0 0.0
2017-Nov-11 15:31N 67°54' E 015°11'0 0.0
2017-Nov-11 15:00N 67°54' E 015°11'0 0.0
2017-Nov-11 14:31N 67°54' E 015°11'0 0.0
2017-Nov-11 14:01N 67°54' E 015°11'3 4.9
2017-Nov-11 13:29N 67°55' E 015°05'4 9.2
2017-Nov-11 13:00N 67°54' E 014°53'4 8.4
2017-Nov-11 12:30N 67°50' E 014°47'4 8.7
2017-Nov-11 12:00N 67°46' E 014°43'5 9.4
2017-Nov-11 11:30N 67°41' E 014°42'4 7.7
2017-Nov-11 11:00N 67°39' E 014°50'5 9.3
2017-Nov-11 10:30N 67°40' E 015°01'1 1.5
2017-Nov-11 09:55N 67°41' E 015°02'0 0.0
2017-Nov-11 09:25N 67°41' E 015°02'4 7.1
2017-Nov-11 08:55N 67°43' E 015°11'4 7.8
2017-Nov-11 08:27N 67°46' E 015°15'2 3.0
2017-Nov-11 07:56N 67°46' E 015°19'4 9.0
2017-Nov-11 07:30N 67°46' E 015°29'2 0.1
2017-Nov-10 11:53N 67°46' E 015°35'2 0.1
2017-Nov-09 12:31N 67°46' E 015°30'0 9.2
2017-Nov-09 12:29N 67°46' E 015°30'6 9.2
2017-Nov-09 11:53N 67°46' E 015°15'0 0.0
2017-Nov-09 11:17N 67°46' E 015°15'0 0.0
2017-Nov-09 10:35N 67°46' E 015°15'0 0.1
2017-Nov-09 10:23N 67°46' E 015°15'6 8.8
2017-Nov-09 09:42N 67°46' E 015°30'2 0.2
2017-Nov-09 01:06N 67°46' E 015°35'2 0.0
2017-Nov-07 06:48N 67°46' E 015°31'6 7.7
2017-Nov-07 06:01N 67°46' E 015°15'0 0.2
2017-Nov-07 05:54N 67°46' E 015°15'0 0.0
2017-Nov-07 05:24N 67°46' E 015°15'0 0.0
2017-Nov-07 04:27N 67°46' E 015°15'0 0.0
2017-Nov-07 03:57N 67°46' E 015°15'0 0.0
2017-Nov-07 03:30N 67°46' E 015°15'0 0.0
2017-Nov-07 02:57N 67°46' E 015°15'0 0.0
2017-Nov-07 02:21N 67°46' E 015°15'0 0.0
2017-Nov-07 02:00N 67°46' E 015°15'0 0.0
2017-Nov-07 01:21N 67°46' E 015°15'0 0.0
2017-Nov-07 00:54N 67°46' E 015°15'0 0.0
2017-Nov-07 00:30N 67°46' E 015°15'0 0.0
2017-Nov-06 23:51N 67°46' E 015°15'0 0.0
2017-Nov-06 23:30N 67°46' E 015°15'0 0.0
2017-Nov-06 22:54N 67°46' E 015°15'0 0.0
2017-Nov-06 22:30N 67°46' E 015°15'0 0.0
2017-Nov-06 21:57N 67°46' E 015°15'0 0.0
2017-Nov-06 21:27N 67°46' E 015°15'0 0.0
2017-Nov-06 20:42N 67°46' E 015°15'0 0.0
2017-Nov-06 20:24N 67°46' E 015°15'  

Dump ship's entire track history